sensor_id;sensor_type;location;lat;lon;timestamp;P1;durP1;ratioP1;P2;durP2;ratioP2
66946;SDS011;53853;51.982;5.928;2023-05-13T00:01:18;6.88;;;4.72;;
66946;SDS011;53853;51.982;5.928;2023-05-13T00:03:48;6.57;;;3.95;;
66946;SDS011;53853;51.982;5.928;2023-05-13T00:06:21;5.13;;;4.25;;
66946;SDS011;53853;51.982;5.928;2023-05-13T00:08:50;5.85;;;4.25;;
66946;SDS011;53853;51.982;5.928;2023-05-13T00:11:21;6.30;;;4.70;;
66946;SDS011;53853;51.982;5.928;2023-05-13T00:13:51;6.75;;;4.55;;
66946;SDS011;53853;51.982;5.928;2023-05-13T00:16:22;7.38;;;4.70;;
66946;SDS011;53853;51.982;5.928;2023-05-13T00:18:53;11.20;;;5.18;;
66946;SDS011;53853;51.982;5.928;2023-05-13T00:21:26;6.53;;;4.72;;
66946;SDS011;53853;51.982;5.928;2023-05-13T00:23:56;7.25;;;4.03;;
66946;SDS011;53853;51.982;5.928;2023-05-13T00:26:26;8.75;;;5.60;;
66946;SDS011;53853;51.982;5.928;2023-05-13T00:28:56;6.82;;;4.43;;
66946;SDS011;53853;51.982;5.928;2023-05-13T00:31:26;5.68;;;4.35;;
66946;SDS011;53853;51.982;5.928;2023-05-13T00:33:56;5.40;;;4.18;;
66946;SDS011;53853;51.982;5.928;2023-05-13T00:36:28;7.82;;;5.40;;
66946;SDS011;53853;51.982;5.928;2023-05-13T00:38:58;8.30;;;5.03;;
66946;SDS011;53853;51.982;5.928;2023-05-13T00:41:28;7.22;;;4.68;;
66946;SDS011;53853;51.982;5.928;2023-05-13T00:43:58;6.68;;;4.47;;
66946;SDS011;53853;51.982;5.928;2023-05-13T00:46:29;6.15;;;3.70;;
66946;SDS011;53853;51.982;5.928;2023-05-13T00:49:00;9.73;;;5.28;;
66946;SDS011;53853;51.982;5.928;2023-05-13T00:51:34;7.03;;;5.00;;
66946;SDS011;53853;51.982;5.928;2023-05-13T00:54:05;9.47;;;5.10;;
66946;SDS011;53853;51.982;5.928;2023-05-13T00:56:36;5.53;;;4.38;;
66946;SDS011;53853;51.982;5.928;2023-05-13T00:59:06;6.82;;;5.00;;
66946;SDS011;53853;51.982;5.928;2023-05-13T01:01:37;5.82;;;4.70;;
66946;SDS011;53853;51.982;5.928;2023-05-13T01:04:13;5.05;;;4.35;;
66946;SDS011;53853;51.982;5.928;2023-05-13T01:06:55;6.93;;;4.68;;
66946;SDS011;53853;51.982;5.928;2023-05-13T01:09:36;10.45;;;4.93;;
66946;SDS011;53853;51.982;5.928;2023-05-13T01:12:20;7.25;;;5.43;;
66946;SDS011;53853;51.982;5.928;2023-05-13T01:14:56;6.40;;;4.43;;
66946;SDS011;53853;51.982;5.928;2023-05-13T01:17:31;5.60;;;4.70;;
66946;SDS011;53853;51.982;5.928;2023-05-13T01:20:09;6.25;;;5.05;;
66946;SDS011;53853;51.982;5.928;2023-05-13T01:22:42;7.63;;;6.28;;
66946;SDS011;53853;51.982;5.928;2023-05-13T01:25:12;8.10;;;4.93;;
66946;SDS011;53853;51.982;5.928;2023-05-13T01:27:42;5.43;;;4.68;;
66946;SDS011;53853;51.982;5.928;2023-05-13T01:30:14;8.50;;;4.40;;
66946;SDS011;53853;51.982;5.928;2023-05-13T01:32:45;5.88;;;4.82;;
66946;SDS011;53853;51.982;5.928;2023-05-13T01:35:16;7.03;;;4.53;;
66946;SDS011;53853;51.982;5.928;2023-05-13T01:37:49;5.93;;;4.38;;
66946;SDS011;53853;51.982;5.928;2023-05-13T01:40:20;5.73;;;4.77;;
66946;SDS011;53853;51.982;5.928;2023-05-13T01:42:51;5.85;;;3.97;;
66946;SDS011;53853;51.982;5.928;2023-05-13T01:45:21;5.60;;;4.65;;
66946;SDS011;53853;51.982;5.928;2023-05-13T01:47:51;6.00;;;4.28;;
66946;SDS011;53853;51.982;5.928;2023-05-13T01:50:21;6.47;;;4.03;;
66946;SDS011;53853;51.982;5.928;2023-05-13T01:52:53;4.50;;;3.92;;
66946;SDS011;53853;51.982;5.928;2023-05-13T01:55:23;6.70;;;4.18;;
66946;SDS011;53853;51.982;5.928;2023-05-13T01:57:54;6.90;;;3.70;;
66946;SDS011;53853;51.982;5.928;2023-05-13T02:00:24;7.90;;;5.28;;
66946;SDS011;53853;51.982;5.928;2023-05-13T02:02:55;5.95;;;4.43;;
66946;SDS011;53853;51.982;5.928;2023-05-13T02:05:25;4.93;;;4.40;;
66946;SDS011;53853;51.982;5.928;2023-05-13T02:07:59;6.90;;;4.90;;
66946;SDS011;53853;51.982;5.928;2023-05-13T02:10:30;6.43;;;5.07;;
66946;SDS011;53853;51.982;5.928;2023-05-13T02:13:00;7.63;;;5.82;;
66946;SDS011;53853;51.982;5.928;2023-05-13T02:15:30;6.95;;;5.28;;
66946;SDS011;53853;51.982;5.928;2023-05-13T02:18:00;5.10;;;4.28;;
66946;SDS011;53853;51.982;5.928;2023-05-13T02:20:30;8.00;;;5.35;;
66946;SDS011;53853;51.982;5.928;2023-05-13T02:23:02;7.88;;;5.38;;
66946;SDS011;53853;51.982;5.928;2023-05-13T02:25:33;6.50;;;5.50;;
66946;SDS011;53853;51.982;5.928;2023-05-13T02:28:03;6.88;;;5.68;;
66946;SDS011;53853;51.982;5.928;2023-05-13T02:30:32;6.03;;;4.93;;
66946;SDS011;53853;51.982;5.928;2023-05-13T02:33:02;6.35;;;4.68;;
66946;SDS011;53853;51.982;5.928;2023-05-13T02:35:32;7.55;;;5.57;;
66946;SDS011;53853;51.982;5.928;2023-05-13T02:38:05;7.40;;;5.88;;
66946;SDS011;53853;51.982;5.928;2023-05-13T02:40:38;6.07;;;5.47;;
66946;SDS011;53853;51.982;5.928;2023-05-13T02:43:08;7.40;;;4.95;;
66946;SDS011;53853;51.982;5.928;2023-05-13T02:45:46;6.00;;;4.57;;
66946;SDS011;53853;51.982;5.928;2023-05-13T02:48:16;7.57;;;5.03;;
66946;SDS011;53853;51.982;5.928;2023-05-13T02:50:46;7.18;;;5.13;;
66946;SDS011;53853;51.982;5.928;2023-05-13T02:53:18;5.50;;;5.00;;
66946;SDS011;53853;51.982;5.928;2023-05-13T02:55:53;6.43;;;5.50;;
66946;SDS011;53853;51.982;5.928;2023-05-13T02:58:25;12.23;;;7.15;;
66946;SDS011;53853;51.982;5.928;2023-05-13T03:00:55;6.72;;;5.97;;
66946;SDS011;53853;51.982;5.928;2023-05-13T03:03:25;5.40;;;4.90;;
66946;SDS011;53853;51.982;5.928;2023-05-13T03:05:55;8.50;;;6.22;;
66946;SDS011;53853;51.982;5.928;2023-05-13T03:08:27;6.97;;;5.70;;
66946;SDS011;53853;51.982;5.928;2023-05-13T03:10:59;7.50;;;5.38;;
66946;SDS011;53853;51.982;5.928;2023-05-13T03:13:29;6.13;;;5.25;;
66946;SDS011;53853;51.982;5.928;2023-05-13T03:15:59;7.45;;;5.28;;
66946;SDS011;53853;51.982;5.928;2023-05-13T03:18:29;6.95;;;5.53;;
66946;SDS011;53853;51.982;5.928;2023-05-13T03:20:59;6.82;;;5.95;;
66946;SDS011;53853;51.982;5.928;2023-05-13T03:23:32;7.13;;;5.30;;
66946;SDS011;53853;51.982;5.928;2023-05-13T03:26:02;8.77;;;7.28;;
66946;SDS011;53853;51.982;5.928;2023-05-13T03:28:33;6.70;;;5.80;;
66946;SDS011;53853;51.982;5.928;2023-05-13T03:31:03;8.32;;;6.72;;
66946;SDS011;53853;51.982;5.928;2023-05-13T03:33:37;9.02;;;6.93;;
66946;SDS011;53853;51.982;5.928;2023-05-13T03:36:07;10.05;;;6.10;;
66946;SDS011;53853;51.982;5.928;2023-05-13T03:38:39;9.77;;;8.00;;
66946;SDS011;53853;51.982;5.928;2023-05-13T03:41:09;8.50;;;5.60;;
66946;SDS011;53853;51.982;5.928;2023-05-13T03:43:42;7.03;;;6.32;;
66946;SDS011;53853;51.982;5.928;2023-05-13T03:46:12;8.15;;;6.82;;
66946;SDS011;53853;51.982;5.928;2023-05-13T03:48:42;8.05;;;7.28;;
66946;SDS011;53853;51.982;5.928;2023-05-13T03:51:12;8.57;;;7.40;;
66946;SDS011;53853;51.982;5.928;2023-05-13T03:53:46;11.02;;;6.95;;
66946;SDS011;53853;51.982;5.928;2023-05-13T03:56:16;9.68;;;7.15;;
66946;SDS011;53853;51.982;5.928;2023-05-13T03:58:46;11.25;;;8.20;;
66946;SDS011;53853;51.982;5.928;2023-05-13T04:01:17;8.23;;;7.43;;
66946;SDS011;53853;51.982;5.928;2023-05-13T04:03:47;7.72;;;6.40;;
66946;SDS011;53853;51.982;5.928;2023-05-13T04:06:17;11.07;;;7.88;;
66946;SDS011;53853;51.982;5.928;2023-05-13T04:08:49;8.60;;;7.78;;
66946;SDS011;53853;51.982;5.928;2023-05-13T04:11:20;10.98;;;7.25;;
66946;SDS011;53853;51.982;5.928;2023-05-13T04:13:49;9.57;;;6.25;;
66946;SDS011;53853;51.982;5.928;2023-05-13T04:16:19;11.68;;;7.78;;
66946;SDS011;53853;51.982;5.928;2023-05-13T04:18:50;10.73;;;7.68;;
66946;SDS011;53853;51.982;5.928;2023-05-13T04:21:20;11.00;;;7.90;;
66946;SDS011;53853;51.982;5.928;2023-05-13T04:23:52;8.75;;;7.75;;
66946;SDS011;53853;51.982;5.928;2023-05-13T04:26:22;8.52;;;7.63;;
66946;SDS011;53853;51.982;5.928;2023-05-13T04:28:52;13.32;;;9.70;;
66946;SDS011;53853;51.982;5.928;2023-05-13T04:31:22;11.15;;;7.85;;
66946;SDS011;53853;51.982;5.928;2023-05-13T04:33:52;12.38;;;8.38;;
66946;SDS011;53853;51.982;5.928;2023-05-13T04:36:22;8.20;;;7.22;;
66946;SDS011;53853;51.982;5.928;2023-05-13T04:38:56;8.57;;;7.65;;
66946;SDS011;53853;51.982;5.928;2023-05-13T04:41:26;9.63;;;7.07;;
66946;SDS011;53853;51.982;5.928;2023-05-13T04:43:56;8.85;;;7.88;;
66946;SDS011;53853;51.982;5.928;2023-05-13T04:46:26;11.27;;;8.20;;
66946;SDS011;53853;51.982;5.928;2023-05-13T04:48:56;9.70;;;7.88;;
66946;SDS011;53853;51.982;5.928;2023-05-13T04:51:26;10.23;;;9.18;;
66946;SDS011;53853;51.982;5.928;2023-05-13T04:53:59;12.07;;;9.38;;
66946;SDS011;53853;51.982;5.928;2023-05-13T04:56:29;10.68;;;8.05;;
66946;SDS011;53853;51.982;5.928;2023-05-13T04:58:59;10.73;;;7.90;;
66946;SDS011;53853;51.982;5.928;2023-05-13T05:01:29;10.50;;;9.30;;
66946;SDS011;53853;51.982;5.928;2023-05-13T05:03:59;8.35;;;6.97;;
66946;SDS011;53853;51.982;5.928;2023-05-13T05:06:29;8.80;;;7.88;;
66946;SDS011;53853;51.982;5.928;2023-05-13T05:09:02;12.55;;;9.82;;
66946;SDS011;53853;51.982;5.928;2023-05-13T05:11:32;9.95;;;8.93;;
66946;SDS011;53853;51.982;5.928;2023-05-13T05:14:01;9.63;;;8.55;;
66946;SDS011;53853;51.982;5.928;2023-05-13T05:16:31;11.52;;;8.30;;
66946;SDS011;53853;51.982;5.928;2023-05-13T05:19:02;11.07;;;8.60;;
66946;SDS011;53853;51.982;5.928;2023-05-13T05:21:32;11.52;;;7.55;;
66946;SDS011;53853;51.982;5.928;2023-05-13T05:24:05;10.32;;;9.02;;
66946;SDS011;53853;51.982;5.928;2023-05-13T05:26:35;8.75;;;7.85;;
66946;SDS011;53853;51.982;5.928;2023-05-13T05:29:05;9.80;;;7.80;;
66946;SDS011;53853;51.982;5.928;2023-05-13T05:31:35;9.18;;;8.25;;
66946;SDS011;53853;51.982;5.928;2023-05-13T05:34:05;10.45;;;8.70;;
66946;SDS011;53853;51.982;5.928;2023-05-13T05:36:36;10.60;;;7.78;;
66946;SDS011;53853;51.982;5.928;2023-05-13T05:39:08;11.02;;;8.70;;
66946;SDS011;53853;51.982;5.928;2023-05-13T05:41:38;13.27;;;7.82;;
66946;SDS011;53853;51.982;5.928;2023-05-13T05:44:08;12.02;;;9.75;;
66946;SDS011;53853;51.982;5.928;2023-05-13T05:46:38;14.38;;;8.07;;
66946;SDS011;53853;51.982;5.928;2023-05-13T05:49:08;10.25;;;8.43;;
66946;SDS011;53853;51.982;5.928;2023-05-13T05:51:38;9.20;;;7.90;;
66946;SDS011;53853;51.982;5.928;2023-05-13T05:54:11;9.73;;;8.30;;
66946;SDS011;53853;51.982;5.928;2023-05-13T05:56:41;10.45;;;8.45;;
66946;SDS011;53853;51.982;5.928;2023-05-13T05:59:10;12.50;;;9.20;;
66946;SDS011;53853;51.982;5.928;2023-05-13T06:01:40;9.85;;;8.70;;
66946;SDS011;53853;51.982;5.928;2023-05-13T06:04:11;10.32;;;8.00;;
66946;SDS011;53853;51.982;5.928;2023-05-13T06:06:42;10.35;;;6.78;;
66946;SDS011;53853;51.982;5.928;2023-05-13T06:09:14;12.20;;;8.02;;
66946;SDS011;53853;51.982;5.928;2023-05-13T06:11:44;8.48;;;7.65;;
66946;SDS011;53853;51.982;5.928;2023-05-13T06:14:15;6.57;;;5.88;;
66946;SDS011;53853;51.982;5.928;2023-05-13T06:16:45;9.75;;;7.05;;
66946;SDS011;53853;51.982;5.928;2023-05-13T06:19:15;9.75;;;7.72;;
66946;SDS011;53853;51.982;5.928;2023-05-13T06:21:45;8.07;;;7.22;;
66946;SDS011;53853;51.982;5.928;2023-05-13T06:24:17;8.48;;;6.20;;
66946;SDS011;53853;51.982;5.928;2023-05-13T06:26:47;12.43;;;8.52;;
66946;SDS011;53853;51.982;5.928;2023-05-13T06:29:17;10.90;;;7.90;;
66946;SDS011;53853;51.982;5.928;2023-05-13T06:31:46;8.23;;;6.45;;
66946;SDS011;53853;51.982;5.928;2023-05-13T06:34:16;8.02;;;6.55;;
66946;SDS011;53853;51.982;5.928;2023-05-13T06:36:46;8.30;;;6.65;;
66946;SDS011;53853;51.982;5.928;2023-05-13T06:39:19;7.90;;;6.32;;
66946;SDS011;53853;51.982;5.928;2023-05-13T06:41:49;12.05;;;7.97;;
66946;SDS011;53853;51.982;5.928;2023-05-13T06:44:21;10.40;;;7.70;;
66946;SDS011;53853;51.982;5.928;2023-05-13T06:46:53;8.30;;;6.40;;
66946;SDS011;53853;51.982;5.928;2023-05-13T06:49:23;8.40;;;7.30;;
66946;SDS011;53853;51.982;5.928;2023-05-13T06:51:53;9.07;;;6.93;;
66946;SDS011;53853;51.982;5.928;2023-05-13T06:54:26;11.43;;;7.45;;
66946;SDS011;53853;51.982;5.928;2023-05-13T06:56:56;8.05;;;7.25;;
66946;SDS011;53853;51.982;5.928;2023-05-13T06:59:26;8.65;;;6.53;;
66946;SDS011;53853;51.982;5.928;2023-05-13T07:01:56;8.70;;;7.80;;
66946;SDS011;53853;51.982;5.928;2023-05-13T07:04:26;7.82;;;7.03;;
66946;SDS011;53853;51.982;5.928;2023-05-13T07:06:56;7.32;;;6.60;;
66946;SDS011;53853;51.982;5.928;2023-05-13T07:09:29;10.65;;;7.50;;
66946;SDS011;53853;51.982;5.928;2023-05-13T07:11:59;12.48;;;7.82;;
66946;SDS011;53853;51.982;5.928;2023-05-13T07:14:29;9.50;;;8.57;;
66946;SDS011;53853;51.982;5.928;2023-05-13T07:17:00;8.52;;;7.60;;
66946;SDS011;53853;51.982;5.928;2023-05-13T07:19:30;8.60;;;7.55;;
66946;SDS011;53853;51.982;5.928;2023-05-13T07:22:00;10.35;;;8.02;;
66946;SDS011;53853;51.982;5.928;2023-05-13T07:24:33;9.77;;;6.63;;
66946;SDS011;53853;51.982;5.928;2023-05-13T07:27:03;11.35;;;6.65;;
66946;SDS011;53853;51.982;5.928;2023-05-13T07:29:33;7.47;;;5.82;;
66946;SDS011;53853;51.982;5.928;2023-05-13T07:32:03;7.78;;;6.38;;
66946;SDS011;53853;51.982;5.928;2023-05-13T07:34:34;6.88;;;5.53;;
66946;SDS011;53853;51.982;5.928;2023-05-13T07:37:04;9.90;;;7.65;;
66946;SDS011;53853;51.982;5.928;2023-05-13T07:39:36;8.98;;;5.72;;
66946;SDS011;53853;51.982;5.928;2023-05-13T07:42:08;6.53;;;5.82;;
66946;SDS011;53853;51.982;5.928;2023-05-13T07:44:40;9.82;;;6.00;;
66946;SDS011;53853;51.982;5.928;2023-05-13T07:47:10;9.80;;;6.47;;
66946;SDS011;53853;51.982;5.928;2023-05-13T07:49:40;7.53;;;6.72;;
66946;SDS011;53853;51.982;5.928;2023-05-13T07:52:09;9.43;;;5.85;;
66946;SDS011;53853;51.982;5.928;2023-05-13T07:54:42;7.95;;;5.32;;
66946;SDS011;53853;51.982;5.928;2023-05-13T07:57:12;7.35;;;5.68;;
66946;SDS011;53853;51.982;5.928;2023-05-13T07:59:41;7.50;;;5.07;;
66946;SDS011;53853;51.982;5.928;2023-05-13T08:02:11;7.80;;;5.53;;
66946;SDS011;53853;51.982;5.928;2023-05-13T08:04:41;7.32;;;4.70;;
66946;SDS011;53853;51.982;5.928;2023-05-13T08:07:11;7.40;;;5.38;;
66946;SDS011;53853;51.982;5.928;2023-05-13T08:09:43;7.45;;;4.93;;
66946;SDS011;53853;51.982;5.928;2023-05-13T08:12:13;6.35;;;4.72;;
66946;SDS011;53853;51.982;5.928;2023-05-13T08:14:43;6.95;;;4.90;;
66946;SDS011;53853;51.982;5.928;2023-05-13T08:17:13;7.03;;;4.57;;
66946;SDS011;53853;51.982;5.928;2023-05-13T08:19:44;10.63;;;5.25;;
66946;SDS011;53853;51.982;5.928;2023-05-13T08:22:13;4.70;;;4.07;;
66946;SDS011;53853;51.982;5.928;2023-05-13T08:24:49;8.23;;;5.43;;
66946;SDS011;53853;51.982;5.928;2023-05-13T08:27:21;6.78;;;4.80;;
66946;SDS011;53853;51.982;5.928;2023-05-13T08:29:51;8.48;;;4.53;;
66946;SDS011;53853;51.982;5.928;2023-05-13T08:32:20;7.00;;;4.78;;
66946;SDS011;53853;51.982;5.928;2023-05-13T08:34:50;8.30;;;4.35;;
66946;SDS011;53853;51.982;5.928;2023-05-13T08:37:20;5.95;;;4.18;;
66946;SDS011;53853;51.982;5.928;2023-05-13T08:39:53;7.40;;;4.35;;
66946;SDS011;53853;51.982;5.928;2023-05-13T08:42:25;7.57;;;4.35;;
66946;SDS011;53853;51.982;5.928;2023-05-13T08:44:56;6.80;;;4.70;;
66946;SDS011;53853;51.982;5.928;2023-05-13T08:47:30;5.15;;;3.47;;
66946;SDS011;53853;51.982;5.928;2023-05-13T08:50:07;6.38;;;4.05;;
66946;SDS011;53853;51.982;5.928;2023-05-13T08:52:37;7.95;;;4.03;;
66946;SDS011;53853;51.982;5.928;2023-05-13T08:55:10;5.53;;;3.50;;
66946;SDS011;53853;51.982;5.928;2023-05-13T08:57:40;4.97;;;3.65;;
66946;SDS011;53853;51.982;5.928;2023-05-13T09:00:10;6.43;;;4.05;;
66946;SDS011;53853;51.982;5.928;2023-05-13T09:02:42;8.25;;;3.60;;
66946;SDS011;53853;51.982;5.928;2023-05-13T09:05:12;4.88;;;3.40;;
66946;SDS011;53853;51.982;5.928;2023-05-13T09:07:43;9.60;;;3.80;;
66946;SDS011;53853;51.982;5.928;2023-05-13T09:10:15;5.78;;;3.67;;
66946;SDS011;53853;51.982;5.928;2023-05-13T09:12:47;6.90;;;3.90;;
66946;SDS011;53853;51.982;5.928;2023-05-13T09:15:19;5.18;;;3.50;;
66946;SDS011;53853;51.982;5.928;2023-05-13T09:17:50;5.90;;;4.20;;
66946;SDS011;53853;51.982;5.928;2023-05-13T09:20:22;6.97;;;3.55;;
66946;SDS011;53853;51.982;5.928;2023-05-13T09:22:53;6.35;;;3.92;;
66946;SDS011;53853;51.982;5.928;2023-05-13T09:25:27;6.88;;;3.72;;
66946;SDS011;53853;51.982;5.928;2023-05-13T09:27:58;5.73;;;3.33;;
66946;SDS011;53853;51.982;5.928;2023-05-13T09:30:31;5.95;;;3.65;;
66946;SDS011;53853;51.982;5.928;2023-05-13T09:33:05;7.43;;;4.70;;
66946;SDS011;53853;51.982;5.928;2023-05-13T09:35:37;7.13;;;4.13;;
66946;SDS011;53853;51.982;5.928;2023-05-13T09:38:12;6.45;;;4.40;;
66946;SDS011;53853;51.982;5.928;2023-05-13T09:40:53;7.72;;;3.63;;
66946;SDS011;53853;51.982;5.928;2023-05-13T09:43:27;5.20;;;4.03;;
66946;SDS011;53853;51.982;5.928;2023-05-13T09:46:00;5.57;;;3.60;;
66946;SDS011;53853;51.982;5.928;2023-05-13T09:48:32;7.43;;;3.88;;
66946;SDS011;53853;51.982;5.928;2023-05-13T09:51:03;6.50;;;3.97;;
66946;SDS011;53853;51.982;5.928;2023-05-13T09:53:33;3.92;;;3.15;;
66946;SDS011;53853;51.982;5.928;2023-05-13T09:56:07;4.35;;;3.45;;
66946;SDS011;53853;51.982;5.928;2023-05-13T09:58:38;6.22;;;4.30;;
66946;SDS011;53853;51.982;5.928;2023-05-13T10:01:08;6.30;;;3.88;;
66946;SDS011;53853;51.982;5.928;2023-05-13T10:03:38;6.90;;;4.57;;
66946;SDS011;53853;51.982;5.928;2023-05-13T10:06:07;6.57;;;3.30;;
66946;SDS011;53853;51.982;5.928;2023-05-13T10:08:38;7.15;;;3.75;;
66946;SDS011;53853;51.982;5.928;2023-05-13T10:11:10;4.13;;;3.58;;
66946;SDS011;53853;51.982;5.928;2023-05-13T10:16:10;7.00;;;4.25;;
66946;SDS011;53853;51.982;5.928;2023-05-13T10:18:41;6.63;;;4.10;;
66946;SDS011;53853;51.982;5.928;2023-05-13T10:21:11;7.10;;;2.97;;
66946;SDS011;53853;51.982;5.928;2023-05-13T10:23:41;5.25;;;3.17;;
66946;SDS011;53853;51.982;5.928;2023-05-13T10:26:15;5.70;;;3.50;;
66946;SDS011;53853;51.982;5.928;2023-05-13T10:28:44;6.32;;;4.18;;
66946;SDS011;53853;51.982;5.928;2023-05-13T10:31:16;6.47;;;3.35;;
66946;SDS011;53853;51.982;5.928;2023-05-13T10:33:46;6.53;;;3.80;;
66946;SDS011;53853;51.982;5.928;2023-05-13T10:36:20;5.65;;;3.97;;
66946;SDS011;53853;51.982;5.928;2023-05-13T10:39:05;7.32;;;3.83;;
66946;SDS011;53853;51.982;5.928;2023-05-13T10:45:00;4.38;;;3.30;;
66946;SDS011;53853;51.982;5.928;2023-05-13T10:47:30;3.80;;;2.83;;
66946;SDS011;53853;51.982;5.928;2023-05-13T10:50:03;4.65;;;2.85;;
66946;SDS011;53853;51.982;5.928;2023-05-13T10:52:41;5.63;;;3.45;;
66946;SDS011;53853;51.982;5.928;2023-05-13T10:55:14;4.90;;;3.45;;
66946;SDS011;53853;51.982;5.928;2023-05-13T11:00:38;5.50;;;3.35;;
66946;SDS011;53853;51.982;5.928;2023-05-13T11:03:12;6.88;;;4.00;;
66946;SDS011;53853;51.982;5.928;2023-05-13T11:06:13;4.47;;;3.50;;
66946;SDS011;53853;51.982;5.928;2023-05-13T11:08:44;6.28;;;3.40;;
66946;SDS011;53853;51.982;5.928;2023-05-13T11:11:22;4.68;;;3.13;;
66946;SDS011;53853;51.982;5.928;2023-05-13T11:14:01;5.25;;;3.05;;
66946;SDS011;53853;51.982;5.928;2023-05-13T11:16:36;5.32;;;3.60;;
66946;SDS011;53853;51.982;5.928;2023-05-13T11:19:08;5.68;;;3.67;;
66946;SDS011;53853;51.982;5.928;2023-05-13T11:21:46;5.00;;;3.47;;
66946;SDS011;53853;51.982;5.928;2023-05-13T11:24:22;5.00;;;3.00;;
66946;SDS011;53853;51.982;5.928;2023-05-13T11:26:52;4.68;;;2.50;;
66946;SDS011;53853;51.982;5.928;2023-05-13T11:29:30;4.82;;;3.10;;
66946;SDS011;53853;51.982;5.928;2023-05-13T11:32:02;6.20;;;3.40;;
66946;SDS011;53853;51.982;5.928;2023-05-13T11:34:33;5.43;;;3.20;;
66946;SDS011;53853;51.982;5.928;2023-05-13T11:37:07;7.05;;;4.20;;
66946;SDS011;53853;51.982;5.928;2023-05-13T11:39:38;5.65;;;3.30;;
66946;SDS011;53853;51.982;5.928;2023-05-13T11:42:09;5.70;;;3.65;;
66946;SDS011;53853;51.982;5.928;2023-05-13T11:44:45;4.22;;;2.75;;
66946;SDS011;53853;51.982;5.928;2023-05-13T11:47:18;5.70;;;3.30;;
66946;SDS011;53853;51.982;5.928;2023-05-13T11:49:54;5.60;;;3.00;;
66946;SDS011;53853;51.982;5.928;2023-05-13T11:52:24;4.10;;;3.25;;
66946;SDS011;53853;51.982;5.928;2023-05-13T11:54:55;4.38;;;3.00;;
66946;SDS011;53853;51.982;5.928;2023-05-13T11:57:26;4.38;;;3.65;;
66946;SDS011;53853;51.982;5.928;2023-05-13T12:00:00;4.78;;;2.90;;
66946;SDS011;53853;51.982;5.928;2023-05-13T12:02:32;3.92;;;2.85;;
66946;SDS011;53853;51.982;5.928;2023-05-13T12:05:05;4.17;;;3.10;;
66946;SDS011;53853;51.982;5.928;2023-05-13T12:07:37;3.83;;;3.05;;
66946;SDS011;53853;51.982;5.928;2023-05-13T12:10:07;5.50;;;3.47;;
66946;SDS011;53853;51.982;5.928;2023-05-13T12:12:38;5.95;;;3.65;;
66946;SDS011;53853;51.982;5.928;2023-05-13T12:15:13;6.20;;;3.30;;
66946;SDS011;53853;51.982;5.928;2023-05-13T12:17:46;3.85;;;3.00;;
66946;SDS011;53853;51.982;5.928;2023-05-13T12:20:17;7.03;;;3.10;;
66946;SDS011;53853;51.982;5.928;2023-05-13T12:22:48;5.05;;;3.45;;
66946;SDS011;53853;51.982;5.928;2023-05-13T12:25:36;5.00;;;3.40;;
66946;SDS011;53853;51.982;5.928;2023-05-13T12:28:12;4.45;;;3.28;;
66946;SDS011;53853;51.982;5.928;2023-05-13T12:30:52;3.55;;;2.72;;
66946;SDS011;53853;51.982;5.928;2023-05-13T12:33:24;4.10;;;2.80;;
66946;SDS011;53853;51.982;5.928;2023-05-13T12:38:54;6.03;;;3.63;;
66946;SDS011;53853;51.982;5.928;2023-05-13T12:41:25;8.32;;;3.00;;
66946;SDS011;53853;51.982;5.928;2023-05-13T12:43:56;4.40;;;2.75;;
66946;SDS011;53853;51.982;5.928;2023-05-13T12:46:30;5.22;;;3.22;;
66946;SDS011;53853;51.982;5.928;2023-05-13T12:49:00;4.47;;;3.40;;
66946;SDS011;53853;51.982;5.928;2023-05-13T12:51:31;4.43;;;3.10;;
66946;SDS011;53853;51.982;5.928;2023-05-13T12:54:01;4.65;;;2.90;;
66946;SDS011;53853;51.982;5.928;2023-05-13T12:56:31;5.78;;;2.67;;
66946;SDS011;53853;51.982;5.928;2023-05-13T12:59:00;5.20;;;2.72;;
66946;SDS011;53853;51.982;5.928;2023-05-13T13:01:33;6.18;;;2.97;;
66946;SDS011;53853;51.982;5.928;2023-05-13T13:04:03;4.55;;;3.17;;
66946;SDS011;53853;51.982;5.928;2023-05-13T13:06:33;5.00;;;3.22;;
66946;SDS011;53853;51.982;5.928;2023-05-13T13:09:03;3.63;;;2.75;;
66946;SDS011;53853;51.982;5.928;2023-05-13T13:11:32;6.90;;;3.15;;
66946;SDS011;53853;51.982;5.928;2023-05-13T13:14:03;4.88;;;2.80;;
66946;SDS011;53853;51.982;5.928;2023-05-13T13:16:36;3.58;;;2.70;;
66946;SDS011;53853;51.982;5.928;2023-05-13T13:19:06;3.70;;;2.70;;
66946;SDS011;53853;51.982;5.928;2023-05-13T13:21:36;4.43;;;2.60;;
66946;SDS011;53853;51.982;5.928;2023-05-13T13:24:06;4.45;;;3.17;;
66946;SDS011;53853;51.982;5.928;2023-05-13T13:26:36;8.18;;;3.30;;
66946;SDS011;53853;51.982;5.928;2023-05-13T13:29:06;3.88;;;2.83;;
66946;SDS011;53853;51.982;5.928;2023-05-13T13:31:38;4.63;;;3.38;;
66946;SDS011;53853;51.982;5.928;2023-05-13T13:34:08;5.15;;;2.92;;
66946;SDS011;53853;51.982;5.928;2023-05-13T13:36:38;5.75;;;3.30;;
66946;SDS011;53853;51.982;5.928;2023-05-13T13:39:08;6.55;;;2.90;;
66946;SDS011;53853;51.982;5.928;2023-05-13T13:41:38;4.82;;;2.85;;
66946;SDS011;53853;51.982;5.928;2023-05-13T13:44:08;2.80;;;2.03;;
66946;SDS011;53853;51.982;5.928;2023-05-13T13:46:40;4.53;;;2.60;;
66946;SDS011;53853;51.982;5.928;2023-05-13T13:49:10;5.72;;;3.60;;
66946;SDS011;53853;51.982;5.928;2023-05-13T13:51:39;7.15;;;2.85;;
66946;SDS011;53853;51.982;5.928;2023-05-13T13:54:09;5.38;;;3.00;;
66946;SDS011;53853;51.982;5.928;2023-05-13T13:56:39;4.85;;;2.75;;
66946;SDS011;53853;51.982;5.928;2023-05-13T13:59:09;4.90;;;3.20;;
66946;SDS011;53853;51.982;5.928;2023-05-13T14:01:41;8.02;;;3.50;;
66946;SDS011;53853;51.982;5.928;2023-05-13T14:04:12;4.43;;;2.80;;
66946;SDS011;53853;51.982;5.928;2023-05-13T14:06:44;5.15;;;3.05;;
66946;SDS011;53853;51.982;5.928;2023-05-13T14:09:14;5.20;;;3.00;;
66946;SDS011;53853;51.982;5.928;2023-05-13T14:11:44;7.53;;;3.00;;
66946;SDS011;53853;51.982;5.928;2023-05-13T14:14:14;4.57;;;3.08;;
66946;SDS011;53853;51.982;5.928;2023-05-13T14:16:46;5.40;;;3.22;;
66946;SDS011;53853;51.982;5.928;2023-05-13T14:19:16;4.30;;;3.13;;
66946;SDS011;53853;51.982;5.928;2023-05-13T14:21:46;4.63;;;2.53;;
66946;SDS011;53853;51.982;5.928;2023-05-13T14:24:16;5.75;;;2.97;;
66946;SDS011;53853;51.982;5.928;2023-05-13T14:26:46;3.80;;;2.97;;
66946;SDS011;53853;51.982;5.928;2023-05-13T14:29:16;4.72;;;2.63;;
66946;SDS011;53853;51.982;5.928;2023-05-13T14:31:48;4.00;;;2.40;;
66946;SDS011;53853;51.982;5.928;2023-05-13T14:34:18;5.32;;;2.67;;
66946;SDS011;53853;51.982;5.928;2023-05-13T14:36:48;4.95;;;2.35;;
66946;SDS011;53853;51.982;5.928;2023-05-13T14:39:19;5.28;;;2.70;;
66946;SDS011;53853;51.982;5.928;2023-05-13T14:41:49;5.25;;;2.78;;
66946;SDS011;53853;51.982;5.928;2023-05-13T14:44:19;9.90;;;3.13;;
66946;SDS011;53853;51.982;5.928;2023-05-13T14:46:51;7.55;;;3.15;;
66946;SDS011;53853;51.982;5.928;2023-05-13T14:49:21;4.97;;;2.97;;
66946;SDS011;53853;51.982;5.928;2023-05-13T14:51:51;4.82;;;2.65;;
66946;SDS011;53853;51.982;5.928;2023-05-13T14:54:21;6.32;;;3.17;;
66946;SDS011;53853;51.982;5.928;2023-05-13T14:56:51;4.40;;;2.78;;
66946;SDS011;53853;51.982;5.928;2023-05-13T14:59:20;5.68;;;3.42;;
66946;SDS011;53853;51.982;5.928;2023-05-13T15:01:53;3.75;;;2.63;;
66946;SDS011;53853;51.982;5.928;2023-05-13T15:04:23;4.50;;;2.95;;
66946;SDS011;53853;51.982;5.928;2023-05-13T15:06:53;3.97;;;2.85;;
66946;SDS011;53853;51.982;5.928;2023-05-13T15:09:23;4.30;;;3.10;;
66946;SDS011;53853;51.982;5.928;2023-05-13T15:11:53;5.47;;;3.05;;
66946;SDS011;53853;51.982;5.928;2023-05-13T15:14:23;3.88;;;2.67;;
66946;SDS011;53853;51.982;5.928;2023-05-13T15:16:56;4.43;;;2.83;;
66946;SDS011;53853;51.982;5.928;2023-05-13T15:19:25;4.90;;;3.25;;
66946;SDS011;53853;51.982;5.928;2023-05-13T15:21:56;5.65;;;3.28;;